Suapan, Botswana
Current Conditions -  °F | °C
As of 11:00 AM on Friday 31 Oct 2014 (Local Time) from FBFT Reporting Station
Clear Clear  
Wind Chill: 93°   Ceiling: Unl
Heat Index: 93°   Visibility: 6mi
Dew Point: 37°   Wind: 17mph
Humidity: 14%   Direction: 80°E
Pressure: 30.03"   Gusts: NA
Location:  20.47°S, 25.98°E
Report Text: FBFT 310900Z 08015KT CAVOK 34/03 Q1017
Loading
Personal Weather Stations






























Interactive Weather Map
Tropical Storm Tracking
New forecast layout! Learn more

10-Day Weather Forecast

Advertisements
Track Severe Weather on mobile